createdAt,value
2023-05-04T00:00:09.000Z,7.0
2023-05-04T00:00:24.000Z,7.0
2023-05-04T00:00:39.000Z,7.0
2023-05-04T00:00:54.000Z,7.0
2023-05-04T00:01:09.000Z,7.0
2023-05-04T00:01:24.000Z,7.0
2023-05-04T00:01:39.000Z,7.0
2023-05-04T00:01:54.000Z,7.0
2023-05-04T00:02:09.000Z,7.0
2023-05-04T00:02:24.000Z,7.0
2023-05-04T00:02:39.000Z,7.0
2023-05-04T00:02:54.000Z,7.0
2023-05-04T00:03:09.000Z,7.0
2023-05-04T00:03:24.000Z,7.0
2023-05-04T00:03:39.000Z,7.0
2023-05-04T00:03:54.000Z,7.0
2023-05-04T00:04:09.000Z,7.0
2023-05-04T00:04:24.000Z,7.0
2023-05-04T00:04:39.000Z,7.099999904632568
2023-05-04T00:04:53.000Z,7.0
2023-05-04T00:05:08.000Z,7.099999904632568
2023-05-04T00:05:24.000Z,7.0
2023-05-04T00:05:39.000Z,7.099999904632568
2023-05-04T00:05:54.000Z,7.099999904632568
2023-05-04T00:06:09.000Z,7.099999904632568
2023-05-04T00:06:24.000Z,7.099999904632568
2023-05-04T00:06:39.000Z,7.099999904632568
2023-05-04T00:06:54.000Z,7.099999904632568
2023-05-04T00:07:09.000Z,7.099999904632568
2023-05-04T00:07:24.000Z,7.099999904632568
2023-05-04T00:07:39.000Z,7.099999904632568
2023-05-04T00:07:54.000Z,7.099999904632568
2023-05-04T00:08:09.000Z,7.099999904632568
2023-05-04T00:08:24.000Z,7.099999904632568
2023-05-04T00:08:39.000Z,7.199999809265137
2023-05-04T00:08:54.000Z,7.099999904632568
2023-05-04T00:09:09.000Z,7.099999904632568
2023-05-04T00:09:24.000Z,7.099999904632568
2023-05-04T00:09:39.000Z,7.099999904632568
2023-05-04T00:09:54.000Z,7.199999809265137
2023-05-04T00:10:09.000Z,7.099999904632568
2023-05-04T00:10:24.000Z,7.099999904632568
2023-05-04T00:10:39.000Z,7.199999809265137
2023-05-04T00:10:54.000Z,7.199999809265137
2023-05-04T00:11:08.000Z,7.099999904632568
2023-05-04T00:11:23.000Z,7.099999904632568
2023-05-04T00:11:39.000Z,7.099999904632568
2023-05-04T00:11:54.000Z,7.099999904632568
2023-05-04T00:12:09.000Z,7.199999809265137
2023-05-04T00:12:24.000Z,7.099999904632568
2023-05-04T00:12:39.000Z,7.099999904632568
2023-05-04T00:12:54.000Z,7.099999904632568
2023-05-04T00:13:09.000Z,7.099999904632568
2023-05-04T00:13:24.000Z,7.099999904632568
2023-05-04T00:13:39.000Z,7.099999904632568
2023-05-04T00:13:54.000Z,7.099999904632568
2023-05-04T00:14:09.000Z,7.099999904632568
2023-05-04T00:14:24.000Z,7.0
2023-05-04T00:14:39.000Z,7.099999904632568
2023-05-04T00:14:54.000Z,7.0
2023-05-04T00:15:09.000Z,7.0
2023-05-04T00:15:24.000Z,7.099999904632568
2023-05-04T00:15:39.000Z,7.0
2023-05-04T00:15:54.000Z,7.0
2023-05-04T00:16:09.000Z,7.0
2023-05-04T00:16:24.000Z,7.0
2023-05-04T00:16:39.000Z,7.0
2023-05-04T00:16:54.000Z,7.0
2023-05-04T00:17:09.000Z,7.0
2023-05-04T00:17:23.000Z,7.0
2023-05-04T00:17:38.000Z,7.0
2023-05-04T00:17:54.000Z,7.0
2023-05-04T00:18:09.000Z,7.0
2023-05-04T00:18:24.000Z,7.0
2023-05-04T00:18:39.000Z,7.0
2023-05-04T00:18:54.000Z,7.0
2023-05-04T00:19:09.000Z,7.0
2023-05-04T00:19:24.000Z,7.0
2023-05-04T00:19:39.000Z,6.900000095367432
2023-05-04T00:19:54.000Z,6.900000095367432
2023-05-04T00:20:09.000Z,6.900000095367432
2023-05-04T00:20:24.000Z,6.900000095367432
2023-05-04T00:20:39.000Z,6.900000095367432
2023-05-04T00:20:54.000Z,6.900000095367432
2023-05-04T00:21:09.000Z,6.800000190734863
2023-05-04T00:21:24.000Z,6.800000190734863
2023-05-04T00:21:39.000Z,6.800000190734863
2023-05-04T00:21:54.000Z,6.699999809265137
2023-05-04T00:22:09.000Z,6.699999809265137
2023-05-04T00:22:24.000Z,6.699999809265137
2023-05-04T00:22:39.000Z,6.599999904632568
2023-05-04T00:22:54.000Z,6.599999904632568
2023-05-04T00:23:09.000Z,6.599999904632568
2023-05-04T00:23:24.000Z,6.599999904632568
2023-05-04T00:23:38.000Z,6.5
2023-05-04T00:23:53.000Z,6.5
2023-05-04T00:24:09.000Z,6.5
2023-05-04T00:24:24.000Z,6.400000095367432
2023-05-04T00:24:39.000Z,6.400000095367432
2023-05-04T00:24:54.000Z,6.400000095367432
2023-05-04T00:25:09.000Z,6.300000190734863
2023-05-04T00:25:24.000Z,6.300000190734863
2023-05-04T00:25:39.000Z,6.300000190734863
2023-05-04T00:25:54.000Z,6.300000190734863
2023-05-04T00:26:09.000Z,6.300000190734863
2023-05-04T00:26:24.000Z,6.300000190734863
2023-05-04T00:26:39.000Z,6.300000190734863
2023-05-04T00:26:54.000Z,6.300000190734863
2023-05-04T00:27:09.000Z,6.300000190734863
2023-05-04T00:27:24.000Z,6.300000190734863
2023-05-04T00:27:39.000Z,6.300000190734863
2023-05-04T00:27:54.000Z,6.300000190734863
2023-05-04T00:28:09.000Z,6.300000190734863
2023-05-04T00:28:24.000Z,6.199999809265137
2023-05-04T00:28:39.000Z,6.199999809265137
2023-05-04T00:28:54.000Z,6.199999809265137
2023-05-04T00:29:09.000Z,6.199999809265137
2023-05-04T00:29:24.000Z,6.199999809265137
2023-05-04T00:29:39.000Z,6.199999809265137
2023-05-04T00:29:53.000Z,6.099999904632568
2023-05-04T00:30:08.000Z,6.099999904632568
2023-05-04T00:30:23.000Z,6.099999904632568
2023-05-04T00:30:39.000Z,6.099999904632568
2023-05-04T00:30:54.000Z,6.099999904632568
2023-05-04T00:31:09.000Z,6.099999904632568
2023-05-04T00:31:24.000Z,6.099999904632568
2023-05-04T00:31:39.000Z,6.099999904632568
2023-05-04T00:31:54.000Z,6.099999904632568
2023-05-04T00:32:09.000Z,6.099999904632568
2023-05-04T00:32:24.000Z,6.099999904632568
2023-05-04T00:32:39.000Z,6.099999904632568
2023-05-04T00:32:54.000Z,6.099999904632568
2023-05-04T00:33:09.000Z,6.099999904632568
2023-05-04T00:33:24.000Z,6.099999904632568
2023-05-04T00:33:39.000Z,6.099999904632568
2023-05-04T00:33:54.000Z,6.099999904632568
2023-05-04T00:34:09.000Z,6.099999904632568
2023-05-04T00:34:24.000Z,6.0
2023-05-04T00:34:39.000Z,6.0
2023-05-04T00:34:54.000Z,6.0
2023-05-04T00:35:09.000Z,6.0
2023-05-04T00:35:24.000Z,6.0
2023-05-04T00:35:39.000Z,6.0
2023-05-04T00:35:54.000Z,6.0
2023-05-04T00:36:09.000Z,6.0
2023-05-04T00:36:23.000Z,6.0
2023-05-04T00:36:38.000Z,6.0
2023-05-04T00:36:54.000Z,6.0
2023-05-04T00:37:09.000Z,6.0
2023-05-04T00:37:24.000Z,6.0
2023-05-04T00:37:39.000Z,6.0
2023-05-04T00:37:54.000Z,6.0
2023-05-04T00:38:09.000Z,6.0
2023-05-04T00:38:24.000Z,6.0
2023-05-04T00:38:39.000Z,5.900000095367432
2023-05-04T00:38:54.000Z,5.900000095367432
2023-05-04T00:39:09.000Z,5.900000095367432
2023-05-04T00:39:24.000Z,5.800000190734863
2023-05-04T00:39:39.000Z,5.900000095367432
2023-05-04T00:39:54.000Z,5.800000190734863
2023-05-04T00:40:09.000Z,5.800000190734863
2023-05-04T00:40:24.000Z,5.800000190734863
2023-05-04T00:40:39.000Z,5.800000190734863
2023-05-04T00:40:54.000Z,5.800000190734863
2023-05-04T00:41:09.000Z,5.800000190734863
2023-05-04T00:41:24.000Z,5.800000190734863
2023-05-04T00:41:39.000Z,5.699999809265137
2023-05-04T00:41:54.000Z,5.699999809265137
2023-05-04T00:42:09.000Z,5.800000190734863
2023-05-04T00:42:24.000Z,5.699999809265137
2023-05-04T00:42:38.000Z,5.699999809265137
2023-05-04T00:42:53.000Z,5.699999809265137
2023-05-04T00:43:08.000Z,5.699999809265137
2023-05-04T00:43:24.000Z,5.699999809265137
2023-05-04T00:43:39.000Z,5.699999809265137
2023-05-04T00:43:54.000Z,5.699999809265137
2023-05-04T00:44:09.000Z,5.699999809265137
2023-05-04T00:44:24.000Z,5.699999809265137
2023-05-04T00:44:39.000Z,5.699999809265137
2023-05-04T00:44:54.000Z,5.599999904632568
2023-05-04T00:45:09.000Z,5.699999809265137
2023-05-04T00:45:24.000Z,5.699999809265137
2023-05-04T00:45:39.000Z,5.699999809265137
2023-05-04T00:45:54.000Z,5.699999809265137
2023-05-04T00:46:09.000Z,5.599999904632568
2023-05-04T00:46:24.000Z,5.599999904632568
2023-05-04T00:46:39.000Z,5.699999809265137
2023-05-04T00:46:54.000Z,5.599999904632568
2023-05-04T00:47:09.000Z,5.5
2023-05-04T00:47:24.000Z,5.599999904632568
2023-05-04T00:47:39.000Z,5.599999904632568
2023-05-04T00:47:54.000Z,5.599999904632568
2023-05-04T00:48:09.000Z,5.599999904632568
2023-05-04T00:48:24.000Z,5.599999904632568
2023-05-04T00:48:39.000Z,5.5
2023-05-04T00:48:54.000Z,5.599999904632568
2023-05-04T00:49:08.000Z,5.599999904632568
2023-05-04T00:49:23.000Z,5.599999904632568
2023-05-04T00:49:38.000Z,5.599999904632568
2023-05-04T00:49:54.000Z,5.599999904632568
2023-05-04T00:50:09.000Z,5.599999904632568
2023-05-04T00:50:24.000Z,5.599999904632568
2023-05-04T00:50:39.000Z,5.599999904632568
2023-05-04T00:50:54.000Z,5.599999904632568
2023-05-04T00:51:09.000Z,5.599999904632568
2023-05-04T00:51:24.000Z,5.599999904632568
2023-05-04T00:51:39.000Z,5.599999904632568
2023-05-04T00:51:54.000Z,5.599999904632568
2023-05-04T00:52:09.000Z,5.599999904632568
2023-05-04T00:52:24.000Z,5.5
2023-05-04T00:52:39.000Z,5.5
2023-05-04T00:52:54.000Z,5.5
2023-05-04T00:53:09.000Z,5.5
2023-05-04T00:53:24.000Z,5.5
2023-05-04T00:53:39.000Z,5.5
2023-05-04T00:53:54.000Z,5.5
2023-05-04T00:54:09.000Z,5.5
2023-05-04T00:54:24.000Z,5.599999904632568
2023-05-04T00:54:39.000Z,5.599999904632568
2023-05-04T00:54:54.000Z,5.599999904632568
2023-05-04T00:55:09.000Z,5.599999904632568
2023-05-04T00:55:24.000Z,5.5
2023-05-04T00:55:38.000Z,5.5
2023-05-04T00:55:53.000Z,5.599999904632568
2023-05-04T00:56:08.000Z,5.599999904632568
2023-05-04T00:56:24.000Z,5.599999904632568
2023-05-04T00:56:39.000Z,5.599999904632568
2023-05-04T00:56:54.000Z,5.599999904632568
2023-05-04T00:57:09.000Z,5.599999904632568
2023-05-04T00:57:24.000Z,5.599999904632568
2023-05-04T00:57:39.000Z,5.599999904632568
2023-05-04T00:57:54.000Z,5.5
2023-05-04T00:58:09.000Z,5.5
2023-05-04T00:58:24.000Z,5.5
2023-05-04T00:58:39.000Z,5.5
2023-05-04T00:58:54.000Z,5.5
2023-05-04T00:59:09.000Z,5.5
2023-05-04T00:59:24.000Z,5.5
2023-05-04T00:59:39.000Z,5.5
2023-05-04T00:59:54.000Z,5.5
2023-05-04T01:00:09.000Z,5.5
2023-05-04T01:00:24.000Z,5.599999904632568
2023-05-04T01:00:39.000Z,5.599999904632568
2023-05-04T01:00:54.000Z,5.5
2023-05-04T01:01:09.000Z,5.599999904632568
2023-05-04T01:01:24.000Z,5.599999904632568
2023-05-04T01:01:39.000Z,5.5
2023-05-04T01:01:54.000Z,5.5
2023-05-04T01:02:08.000Z,5.599999904632568
2023-05-04T01:02:23.000Z,5.5
2023-05-04T01:02:39.000Z,5.5
2023-05-04T01:02:54.000Z,5.5
2023-05-04T01:03:09.000Z,5.5
2023-05-04T01:03:24.000Z,5.5
2023-05-04T01:03:39.000Z,5.5
2023-05-04T01:03:54.000Z,5.5
2023-05-04T01:04:09.000Z,5.5
2023-05-04T01:04:24.000Z,5.400000095367432
2023-05-04T01:04:39.000Z,5.5
2023-05-04T01:04:54.000Z,5.400000095367432
2023-05-04T01:05:09.000Z,5.400000095367432
2023-05-04T01:05:24.000Z,5.400000095367432
2023-05-04T01:05:39.000Z,5.400000095367432
2023-05-04T01:05:54.000Z,5.400000095367432
2023-05-04T01:06:09.000Z,5.400000095367432
2023-05-04T01:06:24.000Z,5.400000095367432
2023-05-04T01:06:39.000Z,5.400000095367432
2023-05-04T01:06:54.000Z,5.400000095367432
2023-05-04T01:07:09.000Z,5.400000095367432
2023-05-04T01:07:24.000Z,5.400000095367432
2023-05-04T01:07:39.000Z,5.400000095367432
2023-05-04T01:07:54.000Z,5.400000095367432
2023-05-04T01:08:09.000Z,5.400000095367432
2023-05-04T01:08:24.000Z,5.400000095367432
2023-05-04T01:08:38.000Z,5.400000095367432
2023-05-04T01:08:53.000Z,5.400000095367432
2023-05-04T01:09:08.000Z,5.400000095367432
2023-05-04T01:09:24.000Z,5.400000095367432
2023-05-04T01:09:39.000Z,5.400000095367432
2023-05-04T01:09:54.000Z,5.400000095367432
2023-05-04T01:10:09.000Z,5.400000095367432
2023-05-04T01:10:24.000Z,5.400000095367432
2023-05-04T01:10:39.000Z,5.400000095367432
2023-05-04T01:10:54.000Z,5.400000095367432
2023-05-04T01:11:09.000Z,5.300000190734863
2023-05-04T01:11:24.000Z,5.400000095367432
2023-05-04T01:11:39.000Z,5.300000190734863
2023-05-04T01:11:54.000Z,5.300000190734863
2023-05-04T01:12:09.000Z,5.300000190734863
2023-05-04T01:12:24.000Z,5.300000190734863
2023-05-04T01:12:39.000Z,5.300000190734863
2023-05-04T01:12:54.000Z,5.300000190734863
2023-05-04T01:13:09.000Z,5.300000190734863
2023-05-04T01:13:24.000Z,5.300000190734863
2023-05-04T01:13:39.000Z,5.300000190734863
2023-05-04T01:13:54.000Z,5.300000190734863
2023-05-04T01:14:09.000Z,5.300000190734863
2023-05-04T01:14:24.000Z,5.300000190734863
2023-05-04T01:14:39.000Z,5.300000190734863
2023-05-04T01:14:54.000Z,5.300000190734863
2023-05-04T01:15:08.000Z,5.300000190734863
2023-05-04T01:15:23.000Z,5.300000190734863
2023-05-04T01:15:38.000Z,5.300000190734863
2023-05-04T01:15:54.000Z,5.300000190734863
2023-05-04T01:16:09.000Z,5.300000190734863
2023-05-04T01:16:24.000Z,5.300000190734863
2023-05-04T01:16:39.000Z,5.300000190734863
2023-05-04T01:16:54.000Z,5.300000190734863
2023-05-04T01:17:09.000Z,5.300000190734863
2023-05-04T01:17:24.000Z,5.300000190734863
2023-05-04T01:17:39.000Z,5.300000190734863
2023-05-04T01:17:54.000Z,5.300000190734863
2023-05-04T01:18:09.000Z,5.300000190734863
2023-05-04T01:18:24.000Z,5.300000190734863
2023-05-04T01:18:39.000Z,5.300000190734863
2023-05-04T01:18:54.000Z,5.300000190734863
2023-05-04T01:19:09.000Z,5.300000190734863
2023-05-04T01:19:24.000Z,5.300000190734863
2023-05-04T01:19:39.000Z,5.300000190734863
2023-05-04T01:19:54.000Z,5.300000190734863
2023-05-04T01:20:09.000Z,5.300000190734863
2023-05-04T01:20:24.000Z,5.300000190734863
2023-05-04T01:20:39.000Z,5.400000095367432
2023-05-04T01:20:54.000Z,5.400000095367432
2023-05-04T01:21:09.000Z,5.400000095367432
2023-05-04T01:21:24.000Z,5.400000095367432
2023-05-04T01:21:38.000Z,5.400000095367432
2023-05-04T01:21:53.000Z,5.400000095367432
2023-05-04T01:22:08.000Z,5.400000095367432
2023-05-04T01:22:24.000Z,5.400000095367432
2023-05-04T01:22:39.000Z,5.400000095367432
2023-05-04T01:22:54.000Z,5.400000095367432
2023-05-04T01:23:09.000Z,5.400000095367432
2023-05-04T01:23:24.000Z,5.400000095367432
2023-05-04T01:23:39.000Z,5.400000095367432
2023-05-04T01:23:54.000Z,5.400000095367432
2023-05-04T01:24:09.000Z,5.400000095367432
2023-05-04T01:24:24.000Z,5.400000095367432
2023-05-04T01:24:39.000Z,5.400000095367432
2023-05-04T01:24:54.000Z,5.400000095367432
2023-05-04T01:25:09.000Z,5.300000190734863
2023-05-04T01:25:24.000Z,5.300000190734863
2023-05-04T01:25:39.000Z,5.300000190734863
2023-05-04T01:25:54.000Z,5.300000190734863
2023-05-04T01:26:09.000Z,5.300000190734863
2023-05-04T01:26:24.000Z,5.300000190734863
2023-05-04T01:26:39.000Z,5.300000190734863
2023-05-04T01:26:54.000Z,5.300000190734863
2023-05-04T01:27:09.000Z,5.300000190734863
2023-05-04T01:27:24.000Z,5.300000190734863
2023-05-04T01:27:39.000Z,5.300000190734863
2023-05-04T01:27:54.000Z,5.300000190734863
2023-05-04T01:28:09.000Z,5.300000190734863
2023-05-04T01:28:23.000Z,5.300000190734863
2023-05-04T01:28:38.000Z,5.300000190734863
2023-05-04T01:28:54.000Z,5.300000190734863
2023-05-04T01:29:09.000Z,5.300000190734863
2023-05-04T01:29:24.000Z,5.300000190734863
2023-05-04T01:29:39.000Z,5.300000190734863
2023-05-04T01:29:54.000Z,5.300000190734863
2023-05-04T01:30:09.000Z,5.300000190734863
2023-05-04T01:30:24.000Z,5.300000190734863
2023-05-04T01:30:39.000Z,5.300000190734863
2023-05-04T01:30:54.000Z,5.300000190734863
2023-05-04T01:31:09.000Z,5.300000190734863
2023-05-04T01:31:24.000Z,5.300000190734863
2023-05-04T01:31:39.000Z,5.300000190734863
2023-05-04T01:31:54.000Z,5.300000190734863
2023-05-04T01:32:09.000Z,5.300000190734863
2023-05-04T01:32:24.000Z,5.300000190734863
2023-05-04T01:32:39.000Z,5.300000190734863
2023-05-04T01:32:54.000Z,5.300000190734863
2023-05-04T01:33:09.000Z,5.300000190734863
2023-05-04T01:33:24.000Z,5.300000190734863
2023-05-04T01:33:39.000Z,5.300000190734863
2023-05-04T01:33:54.000Z,5.300000190734863
2023-05-04T01:34:09.000Z,5.300000190734863
2023-05-04T01:34:24.000Z,5.300000190734863
2023-05-04T01:34:39.000Z,5.300000190734863
2023-05-04T01:34:53.000Z,5.300000190734863
2023-05-04T01:35:08.000Z,5.300000190734863
2023-05-04T01:35:24.000Z,5.199999809265137
2023-05-04T01:35:39.000Z,5.300000190734863
2023-05-04T01:35:54.000Z,5.199999809265137
2023-05-04T01:36:09.000Z,5.199999809265137
2023-05-04T01:36:24.000Z,5.199999809265137
2023-05-04T01:36:39.000Z,5.199999809265137
2023-05-04T01:36:54.000Z,5.199999809265137
2023-05-04T01:37:09.000Z,5.199999809265137
2023-05-04T01:37:24.000Z,5.199999809265137
2023-05-04T01:37:39.000Z,5.199999809265137
2023-05-04T01:37:54.000Z,5.199999809265137
2023-05-04T01:38:09.000Z,5.199999809265137
2023-05-04T01:38:24.000Z,5.199999809265137
2023-05-04T01:38:39.000Z,5.199999809265137
2023-05-04T01:38:54.000Z,5.199999809265137
2023-05-04T01:39:09.000Z,5.199999809265137
2023-05-04T01:39:24.000Z,5.099999904632568
2023-05-04T01:39:39.000Z,5.199999809265137
2023-05-04T01:39:54.000Z,5.199999809265137
2023-05-04T01:40:09.000Z,5.199999809265137
2023-05-04T01:40:24.000Z,5.199999809265137
2023-05-04T01:40:39.000Z,5.199999809265137
2023-05-04T01:40:54.000Z,5.199999809265137
2023-05-04T01:41:09.000Z,5.199999809265137
2023-05-04T01:41:23.000Z,5.199999809265137
2023-05-04T01:41:38.000Z,5.199999809265137
2023-05-04T01:41:54.000Z,5.199999809265137
2023-05-04T01:42:09.000Z,5.199999809265137
2023-05-04T01:42:24.000Z,5.199999809265137
2023-05-04T01:42:39.000Z,5.199999809265137
2023-05-04T01:42:54.000Z,5.199999809265137
2023-05-04T01:43:09.000Z,5.199999809265137
2023-05-04T01:43:24.000Z,5.199999809265137
2023-05-04T01:43:39.000Z,5.199999809265137
2023-05-04T01:43:54.000Z,5.199999809265137
2023-05-04T01:44:09.000Z,5.199999809265137
2023-05-04T01:44:24.000Z,5.199999809265137
2023-05-04T01:44:39.000Z,5.199999809265137
2023-05-04T01:44:54.000Z,5.199999809265137
2023-05-04T01:45:09.000Z,5.300000190734863
2023-05-04T01:45:24.000Z,5.300000190734863
2023-05-04T01:45:39.000Z,5.300000190734863
2023-05-04T01:45:54.000Z,5.300000190734863
2023-05-04T01:46:09.000Z,5.300000190734863
2023-05-04T01:46:24.000Z,5.300000190734863
2023-05-04T01:46:39.000Z,5.300000190734863
2023-05-04T01:46:54.000Z,5.300000190734863
2023-05-04T01:47:09.000Z,5.300000190734863
2023-05-04T01:47:24.000Z,5.300000190734863
2023-05-04T01:47:39.000Z,5.300000190734863
2023-05-04T01:47:53.000Z,5.300000190734863
2023-05-04T01:48:08.000Z,5.300000190734863
2023-05-04T01:48:24.000Z,5.300000190734863
2023-05-04T01:48:39.000Z,5.300000190734863
2023-05-04T01:48:54.000Z,5.300000190734863
2023-05-04T01:49:09.000Z,5.300000190734863
2023-05-04T01:49:24.000Z,5.300000190734863
2023-05-04T01:49:39.000Z,5.300000190734863
2023-05-04T01:49:54.000Z,5.300000190734863
2023-05-04T01:50:09.000Z,5.300000190734863
2023-05-04T01:50:24.000Z,5.300000190734863
2023-05-04T01:50:39.000Z,5.300000190734863
2023-05-04T01:50:54.000Z,5.300000190734863
2023-05-04T01:51:09.000Z,5.300000190734863
2023-05-04T01:51:24.000Z,5.300000190734863
2023-05-04T01:51:39.000Z,5.300000190734863
2023-05-04T01:51:54.000Z,5.300000190734863
2023-05-04T01:52:09.000Z,5.300000190734863
2023-05-04T01:52:24.000Z,5.300000190734863
2023-05-04T01:52:39.000Z,5.300000190734863
2023-05-04T01:52:54.000Z,5.300000190734863
2023-05-04T01:53:09.000Z,5.300000190734863
2023-05-04T01:53:24.000Z,5.300000190734863
2023-05-04T01:53:39.000Z,5.300000190734863
2023-05-04T01:53:54.000Z,5.300000190734863
2023-05-04T01:54:09.000Z,5.300000190734863
2023-05-04T01:54:23.000Z,5.300000190734863
2023-05-04T01:54:38.000Z,5.300000190734863
2023-05-04T01:54:53.000Z,5.300000190734863
2023-05-04T01:55:09.000Z,5.300000190734863
2023-05-04T01:55:24.000Z,5.300000190734863
2023-05-04T01:55:39.000Z,5.300000190734863
2023-05-04T01:55:54.000Z,5.300000190734863
2023-05-04T01:56:09.000Z,5.300000190734863
2023-05-04T01:56:24.000Z,5.300000190734863
2023-05-04T01:56:39.000Z,5.300000190734863
2023-05-04T01:56:54.000Z,5.300000190734863
2023-05-04T01:57:09.000Z,5.300000190734863
2023-05-04T01:57:24.000Z,5.300000190734863
2023-05-04T01:57:39.000Z,5.300000190734863
2023-05-04T01:57:54.000Z,5.300000190734863
2023-05-04T01:58:09.000Z,5.300000190734863
2023-05-04T01:58:24.000Z,5.300000190734863
2023-05-04T01:58:39.000Z,5.300000190734863
2023-05-04T01:58:54.000Z,5.300000190734863
2023-05-04T01:59:09.000Z,5.300000190734863
2023-05-04T01:59:24.000Z,5.300000190734863
2023-05-04T01:59:39.000Z,5.300000190734863
2023-05-04T01:59:54.000Z,5.199999809265137
2023-05-04T02:00:09.000Z,5.199999809265137
2023-05-04T02:00:24.000Z,5.199999809265137
2023-05-04T02:00:39.000Z,5.199999809265137
2023-05-04T02:00:53.000Z,5.199999809265137
2023-05-04T02:01:08.000Z,5.199999809265137
2023-05-04T02:01:23.000Z,5.199999809265137
2023-05-04T02:01:39.000Z,5.199999809265137
2023-05-04T02:01:54.000Z,5.199999809265137
2023-05-04T02:02:09.000Z,5.199999809265137
2023-05-04T02:02:24.000Z,5.199999809265137
2023-05-04T02:02:39.000Z,5.199999809265137
2023-05-04T02:02:54.000Z,5.199999809265137
2023-05-04T02:03:09.000Z,5.199999809265137
2023-05-04T02:03:24.000Z,5.199999809265137
2023-05-04T02:03:39.000Z,5.199999809265137
2023-05-04T02:03:54.000Z,5.199999809265137
2023-05-04T02:04:09.000Z,5.199999809265137
2023-05-04T02:04:24.000Z,5.199999809265137
2023-05-04T02:04:39.000Z,5.199999809265137
2023-05-04T02:04:54.000Z,5.199999809265137
2023-05-04T02:05:09.000Z,5.099999904632568
2023-05-04T02:05:24.000Z,5.199999809265137
2023-05-04T02:05:39.000Z,5.199999809265137
2023-05-04T02:05:54.000Z,5.199999809265137
2023-05-04T02:06:09.000Z,5.199999809265137
2023-05-04T02:06:24.000Z,5.199999809265137
2023-05-04T02:06:39.000Z,5.199999809265137
2023-05-04T02:06:54.000Z,5.199999809265137
2023-05-04T02:07:09.000Z,5.199999809265137
2023-05-04T02:07:23.000Z,5.199999809265137
2023-05-04T02:07:38.000Z,5.199999809265137
2023-05-04T02:07:53.000Z,5.199999809265137
2023-05-04T02:08:09.000Z,5.199999809265137
2023-05-04T02:08:24.000Z,5.199999809265137
2023-05-04T02:08:39.000Z,5.199999809265137
2023-05-04T02:08:54.000Z,5.199999809265137
2023-05-04T02:09:09.000Z,5.199999809265137
2023-05-04T02:09:24.000Z,5.199999809265137
2023-05-04T02:09:39.000Z,5.199999809265137
2023-05-04T02:09:54.000Z,5.199999809265137
2023-05-04T02:10:09.000Z,5.199999809265137
2023-05-04T02:10:24.000Z,5.199999809265137
2023-05-04T02:10:39.000Z,5.199999809265137
2023-05-04T02:10:54.000Z,5.199999809265137
2023-05-04T02:11:09.000Z,5.199999809265137
2023-05-04T02:11:24.000Z,5.199999809265137
2023-05-04T02:11:39.000Z,5.199999809265137
2023-05-04T02:11:54.000Z,5.199999809265137
2023-05-04T02:12:09.000Z,5.199999809265137
2023-05-04T02:12:24.000Z,5.199999809265137
2023-05-04T02:12:39.000Z,5.300000190734863
2023-05-04T02:12:54.000Z,5.199999809265137
2023-05-04T02:13:09.000Z,5.199999809265137
2023-05-04T02:13:24.000Z,5.199999809265137
2023-05-04T02:13:39.000Z,5.199999809265137
2023-05-04T02:13:54.000Z,5.300000190734863
2023-05-04T02:14:08.000Z,5.300000190734863
2023-05-04T02:14:23.000Z,5.199999809265137
2023-05-04T02:14:39.000Z,5.199999809265137
2023-05-04T02:14:54.000Z,5.300000190734863
2023-05-04T02:15:09.000Z,5.300000190734863
2023-05-04T02:15:24.000Z,5.199999809265137
2023-05-04T02:15:39.000Z,5.300000190734863
2023-05-04T02:15:54.000Z,5.300000190734863
2023-05-04T02:16:09.000Z,5.300000190734863
2023-05-04T02:16:24.000Z,5.300000190734863
2023-05-04T02:16:39.000Z,5.300000190734863
2023-05-04T02:16:54.000Z,5.300000190734863
2023-05-04T02:17:09.000Z,5.300000190734863
2023-05-04T02:17:24.000Z,5.300000190734863
2023-05-04T02:17:39.000Z,5.199999809265137
2023-05-04T02:17:54.000Z,5.199999809265137
2023-05-04T02:18:09.000Z,5.300000190734863
2023-05-04T02:18:24.000Z,5.300000190734863
2023-05-04T02:18:39.000Z,5.199999809265137
2023-05-04T02:18:54.000Z,5.300000190734863
2023-05-04T02:19:09.000Z,5.199999809265137
2023-05-04T02:19:24.000Z,5.199999809265137
2023-05-04T02:19:39.000Z,5.199999809265137
2023-05-04T02:19:54.000Z,5.199999809265137
2023-05-04T02:20:09.000Z,5.199999809265137
2023-05-04T02:20:24.000Z,5.199999809265137
2023-05-04T02:20:38.000Z,5.199999809265137
2023-05-04T02:20:53.000Z,5.199999809265137
2023-05-04T02:21:08.000Z,5.199999809265137
2023-05-04T02:21:24.000Z,5.199999809265137
2023-05-04T02:21:39.000Z,5.199999809265137
2023-05-04T02:21:54.000Z,5.199999809265137
2023-05-04T02:22:09.000Z,5.199999809265137
2023-05-04T02:22:24.000Z,5.099999904632568
2023-05-04T02:22:39.000Z,5.099999904632568
2023-05-04T02:22:54.000Z,5.099999904632568
2023-05-04T02:23:09.000Z,5.099999904632568
2023-05-04T02:23:24.000Z,5.099999904632568
2023-05-04T02:23:39.000Z,5.099999904632568
2023-05-04T02:23:54.000Z,5.099999904632568
2023-05-04T02:24:09.000Z,5.099999904632568
2023-05-04T02:24:24.000Z,5.0
2023-05-04T02:24:39.000Z,5.0
2023-05-04T02:24:54.000Z,5.0
2023-05-04T02:25:09.000Z,5.0
2023-05-04T02:25:24.000Z,5.0
2023-05-04T02:25:39.000Z,5.0
2023-05-04T02:25:54.000Z,5.0
2023-05-04T02:26:09.000Z,5.0
2023-05-04T02:26:24.000Z,5.0
2023-05-04T02:26:39.000Z,5.0
2023-05-04T02:26:54.000Z,4.900000095367432
2023-05-04T02:27:09.000Z,4.900000095367432
2023-05-04T02:27:23.000Z,4.900000095367432
2023-05-04T02:27:38.000Z,4.900000095367432